sensor_id;sensor_type;location;lat;lon;timestamp;P1;durP1;ratioP1;P2;durP2;ratioP2
50126;SDS011;36024;47.974;16.398;2023-07-22T00:01:52;4.10;;;3.80;;
50126;SDS011;36024;47.974;16.398;2023-07-22T00:04:19;4.07;;;3.50;;
50126;SDS011;36024;47.974;16.398;2023-07-22T00:06:45;3.57;;;3.23;;
50126;SDS011;36024;47.974;16.398;2023-07-22T00:09:12;2.80;;;2.60;;
50126;SDS011;36024;47.974;16.398;2023-07-22T00:11:39;4.20;;;2.87;;
50126;SDS011;36024;47.974;16.398;2023-07-22T00:14:06;2.80;;;2.60;;
50126;SDS011;36024;47.974;16.398;2023-07-22T00:16:33;3.77;;;2.77;;
50126;SDS011;36024;47.974;16.398;2023-07-22T00:18:59;2.70;;;2.50;;
50126;SDS011;36024;47.974;16.398;2023-07-22T00:21:26;3.07;;;2.50;;
50126;SDS011;36024;47.974;16.398;2023-07-22T00:23:54;2.60;;;2.40;;
50126;SDS011;36024;47.974;16.398;2023-07-22T00:26:21;3.20;;;2.50;;
50126;SDS011;36024;47.974;16.398;2023-07-22T00:28:48;2.70;;;2.27;;
50126;SDS011;36024;47.974;16.398;2023-07-22T00:31:14;2.47;;;2.23;;
50126;SDS011;36024;47.974;16.398;2023-07-22T00:33:41;2.57;;;2.37;;
50126;SDS011;36024;47.974;16.398;2023-07-22T00:36:08;4.07;;;2.57;;
50126;SDS011;36024;47.974;16.398;2023-07-22T00:38:35;2.60;;;2.40;;
50126;SDS011;36024;47.974;16.398;2023-07-22T00:41:02;2.70;;;2.50;;
50126;SDS011;36024;47.974;16.398;2023-07-22T00:43:31;2.77;;;2.57;;
50126;SDS011;36024;47.974;16.398;2023-07-22T00:45:58;3.77;;;2.10;;
50126;SDS011;36024;47.974;16.398;2023-07-22T00:48:25;3.23;;;2.30;;
50126;SDS011;36024;47.974;16.398;2023-07-22T00:50:54;4.63;;;2.20;;
50126;SDS011;36024;47.974;16.398;2023-07-22T00:53:20;2.60;;;2.40;;
50126;SDS011;36024;47.974;16.398;2023-07-22T00:55:47;3.33;;;2.60;;
50126;SDS011;36024;47.974;16.398;2023-07-22T00:58:14;2.23;;;2.03;;
50126;SDS011;36024;47.974;16.398;2023-07-22T01:00:41;3.00;;;2.60;;
50126;SDS011;36024;47.974;16.398;2023-07-22T01:03:08;3.00;;;2.47;;
50126;SDS011;36024;47.974;16.398;2023-07-22T01:05:35;2.90;;;2.70;;
50126;SDS011;36024;47.974;16.398;2023-07-22T01:08:03;4.00;;;2.60;;
50126;SDS011;36024;47.974;16.398;2023-07-22T01:10:30;2.83;;;2.27;;
50126;SDS011;36024;47.974;16.398;2023-07-22T01:12:57;2.80;;;2.30;;
50126;SDS011;36024;47.974;16.398;2023-07-22T01:15:24;3.70;;;2.50;;
50126;SDS011;36024;47.974;16.398;2023-07-22T01:17:52;2.77;;;2.57;;
50126;SDS011;36024;47.974;16.398;2023-07-22T01:20:19;3.80;;;2.47;;
50126;SDS011;36024;47.974;16.398;2023-07-22T01:22:52;2.90;;;2.43;;
50126;SDS011;36024;47.974;16.398;2023-07-22T01:25:21;3.40;;;2.47;;
50126;SDS011;36024;47.974;16.398;2023-07-22T01:27:51;3.23;;;2.47;;
50126;SDS011;36024;47.974;16.398;2023-07-22T01:30:19;4.40;;;2.50;;
50126;SDS011;36024;47.974;16.398;2023-07-22T01:32:49;3.47;;;2.70;;
50126;SDS011;36024;47.974;16.398;2023-07-22T01:35:17;3.70;;;2.70;;
50126;SDS011;36024;47.974;16.398;2023-07-22T01:37:44;2.87;;;2.47;;
50126;SDS011;36024;47.974;16.398;2023-07-22T01:40:11;3.13;;;2.37;;
50126;SDS011;36024;47.974;16.398;2023-07-22T01:42:39;3.03;;;2.43;;
50126;SDS011;36024;47.974;16.398;2023-07-22T01:45:09;5.13;;;2.67;;
50126;SDS011;36024;47.974;16.398;2023-07-22T01:47:38;2.90;;;2.60;;
50126;SDS011;36024;47.974;16.398;2023-07-22T01:50:05;2.90;;;2.60;;
50126;SDS011;36024;47.974;16.398;2023-07-22T01:52:36;4.30;;;2.73;;
50126;SDS011;36024;47.974;16.398;2023-07-22T01:55:03;3.53;;;2.70;;
50126;SDS011;36024;47.974;16.398;2023-07-22T01:57:32;2.80;;;2.60;;
50126;SDS011;36024;47.974;16.398;2023-07-22T01:59:59;5.83;;;2.60;;
50126;SDS011;36024;47.974;16.398;2023-07-22T02:02:26;2.73;;;2.43;;
50126;SDS011;36024;47.974;16.398;2023-07-22T02:04:53;2.90;;;2.60;;
50126;SDS011;36024;47.974;16.398;2023-07-22T02:07:19;3.10;;;2.80;;
50126;SDS011;36024;47.974;16.398;2023-07-22T02:09:46;2.80;;;2.60;;
50126;SDS011;36024;47.974;16.398;2023-07-22T02:12:13;3.57;;;2.70;;
50126;SDS011;36024;47.974;16.398;2023-07-22T02:14:39;3.37;;;2.47;;
50126;SDS011;36024;47.974;16.398;2023-07-22T02:17:06;3.10;;;2.83;;
50126;SDS011;36024;47.974;16.398;2023-07-22T02:19:35;4.23;;;2.63;;
50126;SDS011;36024;47.974;16.398;2023-07-22T02:22:04;4.70;;;3.00;;
50126;SDS011;36024;47.974;16.398;2023-07-22T02:24:31;3.30;;;2.43;;
50126;SDS011;36024;47.974;16.398;2023-07-22T02:26:58;3.77;;;2.40;;
50126;SDS011;36024;47.974;16.398;2023-07-22T02:29:25;3.00;;;2.70;;
50126;SDS011;36024;47.974;16.398;2023-07-22T02:31:52;4.17;;;2.70;;
50126;SDS011;36024;47.974;16.398;2023-07-22T02:34:18;5.03;;;2.53;;
50126;SDS011;36024;47.974;16.398;2023-07-22T02:36:45;3.57;;;2.70;;
50126;SDS011;36024;47.974;16.398;2023-07-22T02:39:12;4.00;;;2.83;;
50126;SDS011;36024;47.974;16.398;2023-07-22T02:41:39;3.53;;;3.03;;
50126;SDS011;36024;47.974;16.398;2023-07-22T02:44:06;3.83;;;2.90;;
50126;SDS011;36024;47.974;16.398;2023-07-22T02:46:33;5.67;;;3.00;;
50126;SDS011;36024;47.974;16.398;2023-07-22T02:48:59;3.23;;;2.93;;
50126;SDS011;36024;47.974;16.398;2023-07-22T02:51:26;3.87;;;2.80;;
50126;SDS011;36024;47.974;16.398;2023-07-22T02:53:53;3.27;;;2.97;;
50126;SDS011;36024;47.974;16.398;2023-07-22T02:56:19;3.87;;;2.70;;
50126;SDS011;36024;47.974;16.398;2023-07-22T02:58:46;2.70;;;2.50;;
50126;SDS011;36024;47.974;16.398;2023-07-22T03:01:14;3.43;;;2.90;;
50126;SDS011;36024;47.974;16.398;2023-07-22T03:03:41;3.00;;;2.70;;
50126;SDS011;36024;47.974;16.398;2023-07-22T03:06:08;2.87;;;2.67;;
50126;SDS011;36024;47.974;16.398;2023-07-22T03:08:36;4.07;;;2.87;;
50126;SDS011;36024;47.974;16.398;2023-07-22T03:11:03;3.63;;;2.83;;
50126;SDS011;36024;47.974;16.398;2023-07-22T03:13:30;4.00;;;2.83;;
50126;SDS011;36024;47.974;16.398;2023-07-22T03:15:57;3.27;;;2.63;;
50126;SDS011;36024;47.974;16.398;2023-07-22T03:18:24;3.97;;;2.70;;
50126;SDS011;36024;47.974;16.398;2023-07-22T03:20:51;4.77;;;2.77;;
50126;SDS011;36024;47.974;16.398;2023-07-22T03:23:18;3.47;;;2.93;;
50126;SDS011;36024;47.974;16.398;2023-07-22T03:25:47;2.90;;;2.60;;
50126;SDS011;36024;47.974;16.398;2023-07-22T03:28:14;3.00;;;2.80;;
50126;SDS011;36024;47.974;16.398;2023-07-22T03:30:41;3.10;;;2.60;;
50126;SDS011;36024;47.974;16.398;2023-07-22T03:33:07;2.60;;;2.40;;
50126;SDS011;36024;47.974;16.398;2023-07-22T03:35:34;3.63;;;2.70;;
50126;SDS011;36024;47.974;16.398;2023-07-22T03:38:02;2.73;;;2.53;;
50126;SDS011;36024;47.974;16.398;2023-07-22T03:40:31;3.00;;;2.17;;
50126;SDS011;36024;47.974;16.398;2023-07-22T03:42:59;2.70;;;2.50;;
50126;SDS011;36024;47.974;16.398;2023-07-22T03:45:25;2.90;;;2.60;;
50126;SDS011;36024;47.974;16.398;2023-07-22T03:47:57;3.00;;;2.23;;
50126;SDS011;36024;47.974;16.398;2023-07-22T03:50:25;4.30;;;2.33;;
50126;SDS011;36024;47.974;16.398;2023-07-22T03:52:52;3.33;;;2.40;;
50126;SDS011;36024;47.974;16.398;2023-07-22T03:55:19;3.40;;;2.20;;
50126;SDS011;36024;47.974;16.398;2023-07-22T03:57:46;2.97;;;2.10;;
50126;SDS011;36024;47.974;16.398;2023-07-22T04:00:13;3.20;;;2.10;;
50126;SDS011;36024;47.974;16.398;2023-07-22T04:02:40;2.30;;;2.10;;
50126;SDS011;36024;47.974;16.398;2023-07-22T04:05:08;2.80;;;2.40;;
50126;SDS011;36024;47.974;16.398;2023-07-22T04:07:35;2.13;;;1.93;;
50126;SDS011;36024;47.974;16.398;2023-07-22T04:10:02;4.03;;;2.13;;
50126;SDS011;36024;47.974;16.398;2023-07-22T04:12:29;3.07;;;2.20;;
50126;SDS011;36024;47.974;16.398;2023-07-22T04:14:56;2.70;;;2.33;;
50126;SDS011;36024;47.974;16.398;2023-07-22T04:17:23;2.30;;;2.10;;
50126;SDS011;36024;47.974;16.398;2023-07-22T04:19:53;2.00;;;1.90;;
50126;SDS011;36024;47.974;16.398;2023-07-22T04:22:20;3.35;;;1.73;;
50126;SDS011;36024;47.974;16.398;2023-07-22T04:24:47;2.10;;;1.90;;
50126;SDS011;36024;47.974;16.398;2023-07-22T04:27:19;3.00;;;1.83;;
50126;SDS011;36024;47.974;16.398;2023-07-22T04:29:46;2.63;;;1.90;;
50126;SDS011;36024;47.974;16.398;2023-07-22T04:32:13;2.90;;;1.90;;
50126;SDS011;36024;47.974;16.398;2023-07-22T04:34:39;2.45;;;1.88;;
50126;SDS011;36024;47.974;16.398;2023-07-22T04:37:07;2.65;;;2.15;;
50126;SDS011;36024;47.974;16.398;2023-07-22T04:39:33;2.13;;;1.90;;
50126;SDS011;36024;47.974;16.398;2023-07-22T04:42:00;2.50;;;1.80;;
50126;SDS011;36024;47.974;16.398;2023-07-22T04:44:27;2.63;;;2.00;;
50126;SDS011;36024;47.974;16.398;2023-07-22T04:46:54;2.72;;;1.80;;
50126;SDS011;36024;47.974;16.398;2023-07-22T04:49:21;2.28;;;1.90;;
50126;SDS011;36024;47.974;16.398;2023-07-22T04:51:48;2.15;;;1.45;;
50126;SDS011;36024;47.974;16.398;2023-07-22T04:54:16;3.23;;;1.90;;
50126;SDS011;36024;47.974;16.398;2023-07-22T04:56:44;2.88;;;2.10;;
50126;SDS011;36024;47.974;16.398;2023-07-22T04:59:11;2.47;;;1.73;;
50126;SDS011;36024;47.974;16.398;2023-07-22T05:01:38;2.67;;;1.80;;
50126;SDS011;36024;47.974;16.398;2023-07-22T05:04:05;2.70;;;1.67;;
50126;SDS011;36024;47.974;16.398;2023-07-22T05:06:32;2.00;;;1.80;;
50126;SDS011;36024;47.974;16.398;2023-07-22T05:08:59;1.60;;;1.50;;
50126;SDS011;36024;47.974;16.398;2023-07-22T05:11:26;1.87;;;1.53;;
50126;SDS011;36024;47.974;16.398;2023-07-22T05:13:53;1.97;;;1.73;;
50126;SDS011;36024;47.974;16.398;2023-07-22T05:16:19;2.07;;;1.83;;
50126;SDS011;36024;47.974;16.398;2023-07-22T05:18:48;2.63;;;1.70;;
50126;SDS011;36024;47.974;16.398;2023-07-22T05:21:14;2.83;;;1.90;;
50126;SDS011;36024;47.974;16.398;2023-07-22T05:23:41;2.77;;;1.83;;
50126;SDS011;36024;47.974;16.398;2023-07-22T05:26:08;3.17;;;2.23;;
50126;SDS011;36024;47.974;16.398;2023-07-22T05:28:34;7.10;;;2.60;;
50126;SDS011;36024;47.974;16.398;2023-07-22T05:31:01;1.97;;;1.67;;
50126;SDS011;36024;47.974;16.398;2023-07-22T05:33:28;4.20;;;2.07;;
50126;SDS011;36024;47.974;16.398;2023-07-22T05:35:54;5.57;;;2.27;;
50126;SDS011;36024;47.974;16.398;2023-07-22T05:38:21;4.13;;;1.90;;
50126;SDS011;36024;47.974;16.398;2023-07-22T05:40:48;4.33;;;1.70;;
50126;SDS011;36024;47.974;16.398;2023-07-22T05:43:14;2.50;;;1.77;;
50126;SDS011;36024;47.974;16.398;2023-07-22T05:45:41;2.60;;;1.80;;
50126;SDS011;36024;47.974;16.398;2023-07-22T05:48:08;4.63;;;2.00;;
50126;SDS011;36024;47.974;16.398;2023-07-22T05:50:35;2.73;;;1.70;;
50126;SDS011;36024;47.974;16.398;2023-07-22T05:53:01;4.13;;;2.10;;
50126;SDS011;36024;47.974;16.398;2023-07-22T05:55:28;3.17;;;1.77;;
50126;SDS011;36024;47.974;16.398;2023-07-22T05:57:55;3.70;;;2.20;;
50126;SDS011;36024;47.974;16.398;2023-07-22T06:00:21;5.83;;;2.10;;
50126;SDS011;36024;47.974;16.398;2023-07-22T06:02:48;2.00;;;1.60;;
50126;SDS011;36024;47.974;16.398;2023-07-22T06:05:15;2.40;;;1.80;;
50126;SDS011;36024;47.974;16.398;2023-07-22T06:07:42;6.30;;;2.07;;
50126;SDS011;36024;47.974;16.398;2023-07-22T06:10:09;6.57;;;2.27;;
50126;SDS011;36024;47.974;16.398;2023-07-22T06:12:36;3.37;;;1.83;;
50126;SDS011;36024;47.974;16.398;2023-07-22T06:15:03;7.30;;;2.80;;
50126;SDS011;36024;47.974;16.398;2023-07-22T06:17:30;2.30;;;2.00;;
50126;SDS011;36024;47.974;16.398;2023-07-22T06:19:57;3.47;;;1.63;;
50126;SDS011;36024;47.974;16.398;2023-07-22T06:22:24;2.77;;;1.63;;
50126;SDS011;36024;47.974;16.398;2023-07-22T06:24:50;2.73;;;2.10;;
50126;SDS011;36024;47.974;16.398;2023-07-22T06:27:17;2.40;;;2.00;;
50126;SDS011;36024;47.974;16.398;2023-07-22T06:29:45;2.93;;;2.10;;
50126;SDS011;36024;47.974;16.398;2023-07-22T06:32:11;1.83;;;1.65;;
50126;SDS011;36024;47.974;16.398;2023-07-22T06:34:38;2.35;;;1.90;;
50126;SDS011;36024;47.974;16.398;2023-07-22T06:37:05;1.80;;;1.67;;
50126;SDS011;36024;47.974;16.398;2023-07-22T06:39:32;3.63;;;2.00;;
50126;SDS011;36024;47.974;16.398;2023-07-22T06:41:58;1.85;;;1.70;;
50126;SDS011;36024;47.974;16.398;2023-07-22T06:44:25;2.40;;;1.90;;
50126;SDS011;36024;47.974;16.398;2023-07-22T06:46:52;2.17;;;1.73;;
50126;SDS011;36024;47.974;16.398;2023-07-22T06:49:18;1.87;;;1.70;;
50126;SDS011;36024;47.974;16.398;2023-07-22T06:51:45;2.30;;;1.90;;
50126;SDS011;36024;47.974;16.398;2023-07-22T06:54:12;2.88;;;1.83;;
50126;SDS011;36024;47.974;16.398;2023-07-22T06:56:38;2.08;;;1.77;;
50126;SDS011;36024;47.974;16.398;2023-07-22T06:59:05;2.85;;;1.80;;
50126;SDS011;36024;47.974;16.398;2023-07-22T07:01:32;2.15;;;1.88;;
50126;SDS011;36024;47.974;16.398;2023-07-22T07:03:59;2.33;;;1.70;;
50126;SDS011;36024;47.974;16.398;2023-07-22T07:06:25;2.97;;;1.65;;
50126;SDS011;36024;47.974;16.398;2023-07-22T07:08:52;2.92;;;1.90;;
50126;SDS011;36024;47.974;16.398;2023-07-22T07:11:19;2.17;;;1.80;;
50126;SDS011;36024;47.974;16.398;2023-07-22T07:13:45;6.35;;;2.10;;
50126;SDS011;36024;47.974;16.398;2023-07-22T07:16:25;2.88;;;2.10;;
50126;SDS011;36024;47.974;16.398;2023-07-22T07:18:54;2.03;;;1.80;;
50126;SDS011;36024;47.974;16.398;2023-07-22T07:21:22;4.22;;;2.05;;
50126;SDS011;36024;47.974;16.398;2023-07-22T07:23:49;2.88;;;1.85;;
50126;SDS011;36024;47.974;16.398;2023-07-22T07:26:16;6.40;;;1.92;;
50126;SDS011;36024;47.974;16.398;2023-07-22T07:28:43;4.93;;;1.90;;
50126;SDS011;36024;47.974;16.398;2023-07-22T07:31:10;3.42;;;1.70;;
50126;SDS011;36024;47.974;16.398;2023-07-22T07:33:36;5.10;;;1.75;;
50126;SDS011;36024;47.974;16.398;2023-07-22T07:36:03;2.30;;;1.60;;
50126;SDS011;36024;47.974;16.398;2023-07-22T07:38:30;3.05;;;1.58;;
50126;SDS011;36024;47.974;16.398;2023-07-22T07:41:04;5.53;;;2.00;;
50126;SDS011;36024;47.974;16.398;2023-07-22T07:43:35;4.60;;;1.90;;
50126;SDS011;36024;47.974;16.398;2023-07-22T07:48:49;2.35;;;1.60;;
50126;SDS011;36024;47.974;16.398;2023-07-22T07:51:19;2.33;;;1.73;;
50126;SDS011;36024;47.974;16.398;2023-07-22T07:53:47;2.63;;;1.60;;
50126;SDS011;36024;47.974;16.398;2023-07-22T07:56:15;4.63;;;1.88;;
50126;SDS011;36024;47.974;16.398;2023-07-22T07:58:43;3.25;;;1.38;;
50126;SDS011;36024;47.974;16.398;2023-07-22T08:01:11;2.63;;;1.60;;
50126;SDS011;36024;47.974;16.398;2023-07-22T08:03:38;1.88;;;1.52;;
50126;SDS011;36024;47.974;16.398;2023-07-22T08:06:06;1.55;;;1.45;;
50126;SDS011;36024;47.974;16.398;2023-07-22T08:08:33;3.38;;;1.80;;
50126;SDS011;36024;47.974;16.398;2023-07-22T08:11:03;2.90;;;1.58;;
50126;SDS011;36024;47.974;16.398;2023-07-22T08:13:31;1.70;;;1.58;;
50126;SDS011;36024;47.974;16.398;2023-07-22T08:16:01;2.50;;;1.70;;
50126;SDS011;36024;47.974;16.398;2023-07-22T08:18:30;1.70;;;1.60;;
50126;SDS011;36024;47.974;16.398;2023-07-22T08:20:57;2.17;;;1.48;;
50126;SDS011;36024;47.974;16.398;2023-07-22T08:23:24;1.85;;;1.20;;
50126;SDS011;36024;47.974;16.398;2023-07-22T08:25:51;2.05;;;1.40;;
50126;SDS011;36024;47.974;16.398;2023-07-22T08:28:17;1.80;;;1.40;;
50126;SDS011;36024;47.974;16.398;2023-07-22T08:30:44;1.80;;;1.50;;
50126;SDS011;36024;47.974;16.398;2023-07-22T08:33:11;1.85;;;1.42;;
50126;SDS011;36024;47.974;16.398;2023-07-22T08:35:42;2.20;;;1.42;;
50126;SDS011;36024;47.974;16.398;2023-07-22T08:38:09;2.08;;;1.35;;
50126;SDS011;36024;47.974;16.398;2023-07-22T08:40:36;2.22;;;1.30;;
50126;SDS011;36024;47.974;16.398;2023-07-22T08:43:05;1.65;;;1.55;;
50126;SDS011;36024;47.974;16.398;2023-07-22T08:45:33;1.52;;;1.42;;
50126;SDS011;36024;47.974;16.398;2023-07-22T08:48:04;2.45;;;1.80;;
50126;SDS011;36024;47.974;16.398;2023-07-22T08:53:39;1.58;;;1.48;;
50126;SDS011;36024;47.974;16.398;2023-07-22T08:56:08;11.65;;;2.42;;
50126;SDS011;36024;47.974;16.398;2023-07-22T08:58:35;6.80;;;2.60;;
50126;SDS011;36024;47.974;16.398;2023-07-22T09:01:02;7.45;;;2.00;;
50126;SDS011;36024;47.974;16.398;2023-07-22T09:03:29;2.60;;;1.80;;
50126;SDS011;36024;47.974;16.398;2023-07-22T09:05:56;4.85;;;2.08;;
50126;SDS011;36024;47.974;16.398;2023-07-22T09:08:23;4.13;;;2.03;;
50126;SDS011;36024;47.974;16.398;2023-07-22T09:10:50;2.22;;;1.58;;
50126;SDS011;36024;47.974;16.398;2023-07-22T09:13:17;1.58;;;1.48;;
50126;SDS011;36024;47.974;16.398;2023-07-22T09:15:45;1.80;;;1.40;;
50126;SDS011;36024;47.974;16.398;2023-07-22T09:18:14;2.25;;;1.25;;
50126;SDS011;36024;47.974;16.398;2023-07-22T09:20:42;1.90;;;1.55;;
50126;SDS011;36024;47.974;16.398;2023-07-22T09:23:08;4.50;;;1.83;;
50126;SDS011;36024;47.974;16.398;2023-07-22T09:25:40;8.40;;;2.20;;
50126;SDS011;36024;47.974;16.398;2023-07-22T09:28:07;2.20;;;1.33;;
50126;SDS011;36024;47.974;16.398;2023-07-22T09:30:35;2.33;;;1.40;;
50126;SDS011;36024;47.974;16.398;2023-07-22T09:33:19;3.78;;;2.00;;
50126;SDS011;36024;47.974;16.398;2023-07-22T09:35:47;1.70;;;1.60;;
50126;SDS011;36024;47.974;16.398;2023-07-22T09:38:22;1.50;;;1.40;;
50126;SDS011;36024;47.974;16.398;2023-07-22T09:40:52;1.40;;;1.30;;
50126;SDS011;36024;47.974;16.398;2023-07-22T09:43:21;1.95;;;1.40;;
50126;SDS011;36024;47.974;16.398;2023-07-22T09:45:49;1.40;;;1.20;;
50126;SDS011;36024;47.974;16.398;2023-07-22T09:48:16;1.48;;;1.38;;
50126;SDS011;36024;47.974;16.398;2023-07-22T09:50:43;1.70;;;1.60;;
50126;SDS011;36024;47.974;16.398;2023-07-22T09:53:10;2.15;;;1.65;;
50126;SDS011;36024;47.974;16.398;2023-07-22T09:55:41;1.55;;;1.27;;
50126;SDS011;36024;47.974;16.398;2023-07-22T09:58:07;1.90;;;1.80;;
50126;SDS011;36024;47.974;16.398;2023-07-22T10:00:36;1.45;;;1.35;;
50126;SDS011;36024;47.974;16.398;2023-07-22T10:03:03;1.60;;;1.50;;
50126;SDS011;36024;47.974;16.398;2023-07-22T10:05:32;1.63;;;1.52;;
50126;SDS011;36024;47.974;16.398;2023-07-22T10:08:00;1.52;;;1.27;;
50126;SDS011;36024;47.974;16.398;2023-07-22T10:13:04;1.35;;;1.27;;
50126;SDS011;36024;47.974;16.398;2023-07-22T10:15:32;1.67;;;1.40;;
50126;SDS011;36024;47.974;16.398;2023-07-22T10:18:01;2.40;;;1.38;;
50126;SDS011;36024;47.974;16.398;2023-07-22T10:20:28;1.52;;;1.42;;
50126;SDS011;36024;47.974;16.398;2023-07-22T10:22:56;1.70;;;1.60;;
50126;SDS011;36024;47.974;16.398;2023-07-22T10:25:22;1.95;;;1.73;;
50126;SDS011;36024;47.974;16.398;2023-07-22T10:27:50;1.73;;;1.40;;
50126;SDS011;36024;47.974;16.398;2023-07-22T10:30:18;1.40;;;1.30;;
50126;SDS011;36024;47.974;16.398;2023-07-22T10:32:45;2.33;;;1.52;;
50126;SDS011;36024;47.974;16.398;2023-07-22T10:35:17;1.55;;;1.45;;
50126;SDS011;36024;47.974;16.398;2023-07-22T10:37:47;3.25;;;2.00;;
50126;SDS011;36024;47.974;16.398;2023-07-22T10:40:27;1.98;;;1.70;;
50126;SDS011;36024;47.974;16.398;2023-07-22T10:42:59;1.70;;;1.60;;
50126;SDS011;36024;47.974;16.398;2023-07-22T10:45:30;1.70;;;1.60;;
50126;SDS011;36024;47.974;16.398;2023-07-22T10:48:07;1.98;;;1.77;;
50126;SDS011;36024;47.974;16.398;2023-07-22T10:50:42;2.03;;;1.45;;
50126;SDS011;36024;47.974;16.398;2023-07-22T10:53:10;2.85;;;1.50;;
50126;SDS011;36024;47.974;16.398;2023-07-22T10:56:02;1.92;;;1.45;;
50126;SDS011;36024;47.974;16.398;2023-07-22T10:58:32;3.90;;;1.77;;
50126;SDS011;36024;47.974;16.398;2023-07-22T11:04:08;2.45;;;1.63;;
50126;SDS011;36024;47.974;16.398;2023-07-22T11:11:54;1.50;;;1.40;;
50126;SDS011;36024;47.974;16.398;2023-07-22T11:14:51;1.50;;;1.40;;
50126;SDS011;36024;47.974;16.398;2023-07-22T11:17:29;1.80;;;1.70;;
50126;SDS011;36024;47.974;16.398;2023-07-22T11:19:57;1.98;;;1.58;;
50126;SDS011;36024;47.974;16.398;2023-07-22T11:22:25;2.53;;;1.80;;
50126;SDS011;36024;47.974;16.398;2023-07-22T11:24:55;3.05;;;1.50;;
50126;SDS011;36024;47.974;16.398;2023-07-22T11:27:24;2.47;;;1.30;;
50126;SDS011;36024;47.974;16.398;2023-07-22T11:29:51;1.60;;;1.50;;
50126;SDS011;36024;47.974;16.398;2023-07-22T11:32:18;2.47;;;1.60;;
50126;SDS011;36024;47.974;16.398;2023-07-22T11:34:50;3.40;;;1.80;;
50126;SDS011;36024;47.974;16.398;2023-07-22T11:37:17;1.92;;;1.70;;
50126;SDS011;36024;47.974;16.398;2023-07-22T11:39:44;1.52;;;1.42;;
50126;SDS011;36024;47.974;16.398;2023-07-22T11:42:11;1.45;;;1.35;;
50126;SDS011;36024;47.974;16.398;2023-07-22T11:44:38;1.20;;;1.10;;
50126;SDS011;36024;47.974;16.398;2023-07-22T11:47:06;3.47;;;1.55;;
50126;SDS011;36024;47.974;16.398;2023-07-22T11:49:37;1.80;;;1.60;;
50126;SDS011;36024;47.974;16.398;2023-07-22T11:54:39;1.83;;;1.60;;
50126;SDS011;36024;47.974;16.398;2023-07-22T11:57:17;1.38;;;1.27;;
50126;SDS011;36024;47.974;16.398;2023-07-22T11:59:48;1.80;;;1.70;;
50126;SDS011;36024;47.974;16.398;2023-07-22T12:02:19;1.85;;;1.75;;
50126;SDS011;36024;47.974;16.398;2023-07-22T12:05:03;2.72;;;1.60;;
50126;SDS011;36024;47.974;16.398;2023-07-22T12:07:35;2.67;;;1.55;;
50126;SDS011;36024;47.974;16.398;2023-07-22T12:10:04;1.70;;;1.60;;
50126;SDS011;36024;47.974;16.398;2023-07-22T12:17:55;1.73;;;1.35;;
50126;SDS011;36024;47.974;16.398;2023-07-22T12:20:28;1.98;;;1.70;;
50126;SDS011;36024;47.974;16.398;2023-07-22T12:22:56;1.77;;;1.60;;
50126;SDS011;36024;47.974;16.398;2023-07-22T12:25:24;2.47;;;1.77;;
50126;SDS011;36024;47.974;16.398;2023-07-22T12:27:51;2.40;;;1.50;;
50126;SDS011;36024;47.974;16.398;2023-07-22T12:30:18;7.30;;;2.38;;
50126;SDS011;36024;47.974;16.398;2023-07-22T12:32:46;2.55;;;1.90;;
50126;SDS011;36024;47.974;16.398;2023-07-22T12:35:14;1.85;;;1.60;;
50126;SDS011;36024;47.974;16.398;2023-07-22T12:37:41;2.22;;;1.83;;
50126;SDS011;36024;47.974;16.398;2023-07-22T12:40:08;2.10;;;1.80;;
50126;SDS011;36024;47.974;16.398;2023-07-22T12:42:35;2.60;;;2.10;;
50126;SDS011;36024;47.974;16.398;2023-07-22T12:45:04;6.32;;;5.72;;
50126;SDS011;36024;47.974;16.398;2023-07-22T12:47:31;2.75;;;2.55;;
50126;SDS011;36024;47.974;16.398;2023-07-22T12:49:58;3.90;;;3.60;;
50126;SDS011;36024;47.974;16.398;2023-07-22T12:52:25;5.35;;;2.40;;
50126;SDS011;36024;47.974;16.398;2023-07-22T12:54:52;3.10;;;2.10;;
50126;SDS011;36024;47.974;16.398;2023-07-22T12:57:19;3.95;;;2.03;;
50126;SDS011;36024;47.974;16.398;2023-07-22T12:59:45;2.40;;;2.20;;
50126;SDS011;36024;47.974;16.398;2023-07-22T13:02:14;2.53;;;2.20;;
50126;SDS011;36024;47.974;16.398;2023-07-22T13:04:42;2.38;;;2.20;;
50126;SDS011;36024;47.974;16.398;2023-07-22T13:07:10;1.90;;;1.80;;
50126;SDS011;36024;47.974;16.398;2023-07-22T13:09:37;2.47;;;1.80;;
50126;SDS011;36024;47.974;16.398;2023-07-22T13:12:17;2.10;;;1.90;;
50126;SDS011;36024;47.974;16.398;2023-07-22T13:14:45;2.35;;;2.15;;
50126;SDS011;36024;47.974;16.398;2023-07-22T13:17:11;2.17;;;1.98;;
50126;SDS011;36024;47.974;16.398;2023-07-22T13:19:38;3.20;;;2.08;;
50126;SDS011;36024;47.974;16.398;2023-07-22T13:22:05;2.35;;;2.15;;
50126;SDS011;36024;47.974;16.398;2023-07-22T13:24:32;2.55;;;2.35;;
50126;SDS011;36024;47.974;16.398;2023-07-22T13:26:58;2.58;;;2.00;;
50126;SDS011;36024;47.974;16.398;2023-07-22T13:29:25;2.35;;;1.95;;
50126;SDS011;36024;47.974;16.398;2023-07-22T13:31:52;3.88;;;2.00;;
50126;SDS011;36024;47.974;16.398;2023-07-22T13:34:18;2.97;;;2.40;;
50126;SDS011;36024;47.974;16.398;2023-07-22T13:36:45;3.05;;;2.25;;
50126;SDS011;36024;47.974;16.398;2023-07-22T13:39:13;2.35;;;2.15;;
50126;SDS011;36024;47.974;16.398;2023-07-22T13:41:39;3.33;;;2.72;;
50126;SDS011;36024;47.974;16.398;2023-07-22T13:44:06;3.20;;;2.55;;
50126;SDS011;36024;47.974;16.398;2023-07-22T13:46:33;2.80;;;2.60;;
50126;SDS011;36024;47.974;16.398;2023-07-22T13:48:59;2.47;;;2.28;;
50126;SDS011;36024;47.974;16.398;2023-07-22T13:51:26;2.33;;;2.13;;
50126;SDS011;36024;47.974;16.398;2023-07-22T13:53:53;2.70;;;2.50;;
50126;SDS011;36024;47.974;16.398;2023-07-22T13:56:21;2.80;;;2.58;;
50126;SDS011;36024;47.974;16.398;2023-07-22T13:58:47;2.72;;;2.53;;
50126;SDS011;36024;47.974;16.398;2023-07-22T14:01:14;3.28;;;2.45;;
50126;SDS011;36024;47.974;16.398;2023-07-22T14:03:41;3.20;;;2.45;;
50126;SDS011;36024;47.974;16.398;2023-07-22T14:06:08;2.97;;;2.50;;
50126;SDS011;36024;47.974;16.398;2023-07-22T14:08:34;3.10;;;2.85;;
50126;SDS011;36024;47.974;16.398;2023-07-22T14:11:01;3.30;;;2.70;;
50126;SDS011;36024;47.974;16.398;2023-07-22T14:13:28;3.80;;;2.50;;
50126;SDS011;36024;47.974;16.398;2023-07-22T14:15:54;3.22;;;2.65;;
50126;SDS011;36024;47.974;16.398;2023-07-22T14:18:34;3.22;;;2.97;;
50126;SDS011;36024;47.974;16.398;2023-07-22T14:21:00;2.90;;;2.60;;
50126;SDS011;36024;47.974;16.398;2023-07-22T14:23:27;3.80;;;2.70;;
50126;SDS011;36024;47.974;16.398;2023-07-22T14:25:54;3.83;;;2.80;;
50126;SDS011;36024;47.974;16.398;2023-07-22T14:28:21;3.28;;;2.97;;
50126;SDS011;36024;47.974;16.398;2023-07-22T14:30:47;3.03;;;2.72;;
50126;SDS011;36024;47.974;16.398;2023-07-22T14:33:14;3.00;;;2.47;;
50126;SDS011;36024;47.974;16.398;2023-07-22T14:35:41;3.92;;;2.75;;
50126;SDS011;36024;47.974;16.398;2023-07-22T14:38:07;2.28;;;2.03;;
50126;SDS011;36024;47.974;16.398;2023-07-22T14:40:34;2.90;;;2.22;;
50126;SDS011;36024;47.974;16.398;2023-07-22T14:43:01;2.30;;;2.10;;
50126;SDS011;36024;47.974;16.398;2023-07-22T14:45:27;4.15;;;2.17;;
50126;SDS011;36024;47.974;16.398;2023-07-22T14:47:54;1.88;;;1.77;;
50126;SDS011;36024;47.974;16.398;2023-07-22T14:50:21;2.40;;;2.20;;
50126;SDS011;36024;47.974;16.398;2023-07-22T14:52:48;2.58;;;2.38;;
50126;SDS011;36024;47.974;16.398;2023-07-22T14:55:15;4.05;;;2.15;;
50126;SDS011;36024;47.974;16.398;2023-07-22T14:57:41;2.40;;;2.20;;
50126;SDS011;36024;47.974;16.398;2023-07-22T15:00:08;2.47;;;2.03;;
50126;SDS011;36024;47.974;16.398;2023-07-22T15:02:36;2.70;;;2.35;;